WXForecasting.com
Harvey, MI - Weather Station Data
 
Daily Summary for September 01, 2015 Units:  English    Metric   Both
« Previous Day
Next Day »
Daily Weekly Monthly Yearly Custom
  Current: High: Low: Average:
Temperature: 85.9 °F 89.0 °F 67.2 °F 76.2 °F
Dew Point: 71.0 °F 74.0 °F 64.0 °F 68.3 °F
Humidity: 61% 90% 57% 78%
Wind Speed: 0.0mph 7.0mph 0.0mph 1.5mph
Wind Gust: 1.0mph 10.0mph - -
WindCalm - - South
Pressure: 29.79 in 29.87 in 29.78 in -
Precipitation: 0.00 in      
Historical Graphs
 
 
Tabular Data for September 01, 2015
Time Temp Dew Point Pressure Wind Wind Speed Wind Gust RH Rain Rate/Hour
00:09 72.9 °F 66.0 °F 29.83 in SSW 2.0 mph 9.0 mph 79% 0.00 in
00:24 72.5 °F 66.0 °F 29.83 in South 2.0 mph 10.0 mph 80% 0.00 in
00:39 72.2 °F 66.0 °F 29.83 in South 1.0 mph 9.0 mph 81% 0.00 in
00:54 71.8 °F 66.0 °F 29.83 in SSE 1.0 mph 10.0 mph 82% 0.00 in
01:09 71.5 °F 66.0 °F 29.83 in SSW 2.0 mph 7.0 mph 82% 0.00 in
01:25 71.2 °F 66.0 °F 29.84 in SSE 1.0 mph 7.0 mph 83% 0.00 in
01:39 70.8 °F 65.0 °F 29.85 in SW 1.0 mph 8.0 mph 83% 0.00 in
01:54 70.5 °F 66.0 °F 29.85 in South 3.0 mph 6.0 mph 84% 0.00 in
02:09 70.2 °F 66.0 °F 29.85 in South 1.0 mph 6.0 mph 85% 0.00 in
02:24 69.9 °F 65.0 °F 29.85 in SSE 4.0 mph 7.0 mph 85% 0.00 in
02:39 69.7 °F 65.0 °F 29.85 in SSE 3.0 mph 5.0 mph 86% 0.00 in
02:54 69.5 °F 66.0 °F 29.85 in South 2.0 mph 9.0 mph 87% 0.00 in
03:09 69.4 °F 65.0 °F 29.85 in Calm   8.0 mph 87% 0.00 in
03:24 69.1 °F 65.0 °F 29.85 in South 3.0 mph 4.0 mph 87% 0.00 in
03:39 68.9 °F 65.0 °F 29.85 in Calm   3.0 mph 88% 0.00 in
03:54 68.7 °F 65.0 °F 29.85 in South 3.0 mph 5.0 mph 88% 0.00 in
04:10 68.5 °F 65.0 °F 29.85 in Calm   6.0 mph 88% 0.00 in
04:25 68.6 °F 65.0 °F 29.85 in South 3.0 mph 5.0 mph 88% 0.00 in
04:40 68.6 °F 65.0 °F 29.85 in South 3.0 mph 5.0 mph 89% 0.00 in
04:55 68.6 °F 65.0 °F 29.85 in Calm   3.0 mph 89% 0.00 in
05:10 68.6 °F 65.0 °F 29.85 in Calm   4.0 mph 89% 0.00 in
05:25 68.6 °F 65.0 °F 29.85 in Calm   6.0 mph 89% 0.00 in
05:40 68.6 °F 65.0 °F 29.85 in South 1.0 mph 5.0 mph 89% 0.00 in
05:55 68.5 °F 65.0 °F 29.85 in Calm   6.0 mph 89% 0.00 in
06:10 68.5 °F 65.0 °F 29.85 in SW 1.0 mph 3.0 mph 89% 0.00 in
06:25 68.4 °F 65.0 °F 29.86 in Calm   8.0 mph 89% 0.00 in
06:40 68.1 °F 65.0 °F 29.86 in Calm   2.0 mph 89% 0.00 in
06:55 67.7 °F 64.0 °F 29.86 in South 2.0 mph 5.0 mph 89% 0.00 in
07:10 67.6 °F 64.0 °F 29.86 in South 1.0 mph 3.0 mph 89% 0.00 in
07:25 67.3 °F 64.0 °F 29.87 in Calm   7.0 mph 89% 0.00 in
07:40 67.2 °F 64.0 °F 29.87 in Calm   6.0 mph 89% 0.00 in
07:55 67.2 °F 64.0 °F 29.87 in SE 1.0 mph 3.0 mph 90% 0.00 in
08:10 67.4 °F 65.0 °F 29.87 in WSW 3.0 mph 6.0 mph 90% 0.00 in
08:25 67.9 °F 65.0 °F 29.87 in SSW 1.0 mph 9.0 mph 90% 0.00 in
08:40 68.8 °F 66.0 °F 29.87 in South 1.0 mph 4.0 mph 90% 0.00 in
08:55 69.8 °F 67.0 °F 29.86 in Calm   3.0 mph 89% 0.00 in
09:10 70.9 °F 68.0 °F 29.86 in SSE 1.0 mph 2.0 mph 89% 0.00 in
09:25 71.7 °F 68.0 °F 29.86 in SSE 2.0 mph 5.0 mph 87% 0.00 in
09:40 72.1 °F 68.0 °F 29.85 in SSW 1.0 mph 5.0 mph 86% 0.00 in
09:55 73.1 °F 69.0 °F 29.86 in SSE 6.0 mph 7.0 mph 86% 0.00 in
10:10 74.2 °F 70.0 °F 29.85 in SE 2.0 mph 4.0 mph 85% 0.00 in
10:40 75.2 °F 70.0 °F 29.85 in WSW 1.0 mph 7.0 mph 84% 0.00 in
10:56 76.4 °F 71.0 °F 29.85 in Calm   10.0 mph 84% 0.00 in
11:10 77.2 °F 71.0 °F 29.85 in SSW 1.0 mph 9.0 mph 81% 0.00 in
11:25 77.8 °F 71.0 °F 29.84 in SE 4.0 mph 7.0 mph 80% 0.00 in
11:40 79.4 °F 72.0 °F 29.84 in Calm   8.0 mph 78% 0.00 in
11:56 80.9 °F 73.0 °F 29.84 in SE 2.0 mph 7.0 mph 77% 0.00 in
12:11 82.0 °F 72.0 °F 29.84 in SW 1.0 mph 8.0 mph 72% 0.00 in
12:26 81.8 °F 72.0 °F 29.84 in SSW 1.0 mph 6.0 mph 73% 0.00 in
12:41 83.4 °F 74.0 °F 29.83 in South 3.0 mph 6.0 mph 73% 0.00 in
12:56 84.9 °F 73.0 °F 29.82 in South 2.0 mph 7.0 mph 67% 0.00 in
13:11 85.8 °F 72.0 °F 29.82 in Calm   8.0 mph 64% 0.00 in
13:26 86.8 °F 73.0 °F 29.81 in SSW 7.0 mph 7.0 mph 63% 0.00 in
13:41 86.7 °F 73.0 °F 29.81 in Calm   7.0 mph 64% 0.00 in
13:56 87.8 °F 72.0 °F 29.80 in South 1.0 mph 8.0 mph 60% 0.00 in
14:11 87.3 °F 73.0 °F 29.80 in SSE 1.0 mph 6.0 mph 63% 0.00 in
14:26 86.9 °F 72.0 °F 29.79 in South 2.0 mph 7.0 mph 61% 0.00 in
14:41 89.0 °F 72.0 °F 29.79 in SW 2.0 mph 10.0 mph 57% 0.00 in
15:00 88.7 °F 72.0 °F 29.80 in ESE 2.0 mph 7.0 mph 58% 0.00 in
15:11 88.4 °F 72.0 °F 29.79 in SSW 1.0 mph 4.0 mph 59% 0.00 in
15:26 88.0 °F 72.0 °F 29.79 in SE 1.0 mph 5.0 mph 59% 0.00 in
15:41 87.9 °F 71.0 °F 29.79 in SSE 5.0 mph 6.0 mph 58% 0.00 in
15:56 87.7 °F 71.0 °F 29.80 in SSE 4.0 mph 5.0 mph 58% 0.00 in
16:11 87.5 °F 72.0 °F 29.79 in Calm   3.0 mph 60% 0.00 in
16:26 87.5 °F 72.0 °F 29.79 in South 2.0 mph 5.0 mph 60% 0.00 in
16:41 86.8 °F 71.0 °F 29.79 in South 1.0 mph 6.0 mph 59% 0.00 in
16:56 87.7 °F 72.0 °F 29.78 in WSW 1.0 mph 5.0 mph 59% 0.00 in
17:11 87.6 °F 73.0 °F 29.78 in Calm   4.0 mph 62% 0.00 in
17:26 86.8 °F 72.0 °F 29.78 in South 1.0 mph 4.0 mph 61% 0.00 in
17:41 86.6 °F 71.0 °F 29.79 in South 2.0 mph 3.0 mph 60% 0.00 in
17:56 86.7 °F 70.0 °F 29.79 in Calm   5.0 mph 58% 0.00 in
18:11 85.9 °F 71.0 °F 29.79 in Calm   1.0 mph 61% 0.00 in
Compliments of Weather Underground

56 Visitors online right now
Max visitors today: 66 at 05:44 pm EDT
This month: 66 at 09-01-2015 05:44 pm EDT
This year: 103 at 06-10-2015 03:56 pm EDT
All time: 104 at 01-04-2012 03:34 am EST
See Who is Online